sensor_id;sensor_type;location;lat;lon;timestamp;P1;durP1;ratioP1;P2;durP2;ratioP2
56201;SDS011;42117;50.360;3.508;2023-05-10T00:02:25;3.88;;;3.58;;
56201;SDS011;42117;50.360;3.508;2023-05-10T00:04:51;5.75;;;4.05;;
56201;SDS011;42117;50.360;3.508;2023-05-10T00:07:18;3.95;;;3.45;;
56201;SDS011;42117;50.360;3.508;2023-05-10T00:09:44;4.18;;;3.75;;
56201;SDS011;42117;50.360;3.508;2023-05-10T00:12:10;5.45;;;4.43;;
56201;SDS011;42117;50.360;3.508;2023-05-10T00:14:36;4.70;;;4.13;;
56201;SDS011;42117;50.360;3.508;2023-05-10T00:17:02;5.67;;;4.70;;
56201;SDS011;42117;50.360;3.508;2023-05-10T00:19:28;7.00;;;3.67;;
56201;SDS011;42117;50.360;3.508;2023-05-10T00:21:54;5.38;;;3.72;;
56201;SDS011;42117;50.360;3.508;2023-05-10T00:24:20;6.90;;;3.77;;
56201;SDS011;42117;50.360;3.508;2023-05-10T00:26:46;5.30;;;4.07;;
56201;SDS011;42117;50.360;3.508;2023-05-10T00:29:12;3.50;;;3.20;;
56201;SDS011;42117;50.360;3.508;2023-05-10T00:31:38;4.72;;;3.78;;
56201;SDS011;42117;50.360;3.508;2023-05-10T00:34:04;4.72;;;4.20;;
56201;SDS011;42117;50.360;3.508;2023-05-10T00:36:30;4.07;;;3.78;;
56201;SDS011;42117;50.360;3.508;2023-05-10T00:38:56;4.20;;;3.80;;
56201;SDS011;42117;50.360;3.508;2023-05-10T00:41:22;4.77;;;4.37;;
56201;SDS011;42117;50.360;3.508;2023-05-10T00:43:48;4.20;;;3.80;;
56201;SDS011;42117;50.360;3.508;2023-05-10T00:46:14;4.83;;;4.33;;
56201;SDS011;42117;50.360;3.508;2023-05-10T00:48:41;7.45;;;4.20;;
56201;SDS011;42117;50.360;3.508;2023-05-10T00:51:07;4.38;;;3.97;;
56201;SDS011;42117;50.360;3.508;2023-05-10T00:53:34;4.18;;;3.88;;
56201;SDS011;42117;50.360;3.508;2023-05-10T00:56:00;4.60;;;4.18;;
56201;SDS011;42117;50.360;3.508;2023-05-10T00:58:28;5.15;;;3.97;;
56201;SDS011;42117;50.360;3.508;2023-05-10T01:00:55;5.93;;;4.30;;
56201;SDS011;42117;50.360;3.508;2023-05-10T01:03:22;4.05;;;3.75;;
56201;SDS011;42117;50.360;3.508;2023-05-10T01:05:48;4.20;;;3.35;;
56201;SDS011;42117;50.360;3.508;2023-05-10T01:08:14;6.30;;;3.88;;
56201;SDS011;42117;50.360;3.508;2023-05-10T01:10:41;3.83;;;3.23;;
56201;SDS011;42117;50.360;3.508;2023-05-10T01:13:07;2.70;;;2.60;;
56201;SDS011;42117;50.360;3.508;2023-05-10T01:15:33;3.22;;;3.03;;
56201;SDS011;42117;50.360;3.508;2023-05-10T01:17:59;5.70;;;3.40;;
56201;SDS011;42117;50.360;3.508;2023-05-10T01:20:26;5.10;;;3.05;;
56201;SDS011;42117;50.360;3.508;2023-05-10T01:26:04;5.60;;;3.40;;
56201;SDS011;42117;50.360;3.508;2023-05-10T01:28:38;3.93;;;3.30;;
56201;SDS011;42117;50.360;3.508;2023-05-10T01:36:23;9.27;;;4.30;;
56201;SDS011;42117;50.360;3.508;2023-05-10T01:38:55;8.95;;;4.05;;
56201;SDS011;42117;50.360;3.508;2023-05-10T01:46:24;5.43;;;3.95;;
56201;SDS011;42117;50.360;3.508;2023-05-10T01:48:53;4.00;;;3.53;;
56201;SDS011;42117;50.360;3.508;2023-05-10T01:51:21;7.20;;;3.80;;
56201;SDS011;42117;50.360;3.508;2023-05-10T01:53:48;5.72;;;3.53;;
56201;SDS011;42117;50.360;3.508;2023-05-10T01:56:15;8.32;;;4.28;;
56201;SDS011;42117;50.360;3.508;2023-05-10T01:58:43;8.17;;;3.60;;
56201;SDS011;42117;50.360;3.508;2023-05-10T02:01:11;6.07;;;3.88;;
56201;SDS011;42117;50.360;3.508;2023-05-10T02:03:37;9.00;;;4.60;;
56201;SDS011;42117;50.360;3.508;2023-05-10T02:06:04;7.20;;;3.47;;
56201;SDS011;42117;50.360;3.508;2023-05-10T02:08:31;6.35;;;2.80;;
56201;SDS011;42117;50.360;3.508;2023-05-10T02:10:59;3.78;;;2.95;;
56201;SDS011;42117;50.360;3.508;2023-05-10T02:13:26;5.20;;;2.80;;
56201;SDS011;42117;50.360;3.508;2023-05-10T02:15:53;5.88;;;2.85;;
56201;SDS011;42117;50.360;3.508;2023-05-10T02:18:20;3.30;;;2.50;;
56201;SDS011;42117;50.360;3.508;2023-05-10T02:20:48;7.88;;;3.15;;
56201;SDS011;42117;50.360;3.508;2023-05-10T02:23:14;9.55;;;4.13;;
56201;SDS011;42117;50.360;3.508;2023-05-10T02:25:43;12.75;;;3.53;;
56201;SDS011;42117;50.360;3.508;2023-05-10T02:28:09;7.13;;;3.00;;
56201;SDS011;42117;50.360;3.508;2023-05-10T02:30:37;6.30;;;2.87;;
56201;SDS011;42117;50.360;3.508;2023-05-10T02:33:03;6.63;;;2.58;;
56201;SDS011;42117;50.360;3.508;2023-05-10T02:35:30;14.20;;;3.60;;
56201;SDS011;42117;50.360;3.508;2023-05-10T02:38:00;13.83;;;3.20;;
56201;SDS011;42117;50.360;3.508;2023-05-10T02:40:26;6.57;;;2.80;;
56201;SDS011;42117;50.360;3.508;2023-05-10T02:42:54;14.33;;;3.20;;
56201;SDS011;42117;50.360;3.508;2023-05-10T02:45:30;2.75;;;1.90;;
56201;SDS011;42117;50.360;3.508;2023-05-10T02:47:57;9.90;;;3.10;;
56201;SDS011;42117;50.360;3.508;2023-05-10T02:50:25;2.63;;;2.35;;
56201;SDS011;42117;50.360;3.508;2023-05-10T02:52:54;7.00;;;2.70;;
56201;SDS011;42117;50.360;3.508;2023-05-10T02:55:22;9.90;;;2.72;;
56201;SDS011;42117;50.360;3.508;2023-05-10T02:57:52;3.42;;;2.70;;
56201;SDS011;42117;50.360;3.508;2023-05-10T03:00:20;7.60;;;3.00;;
56201;SDS011;42117;50.360;3.508;2023-05-10T03:02:46;5.33;;;2.70;;
56201;SDS011;42117;50.360;3.508;2023-05-10T03:05:12;6.67;;;2.67;;
56201;SDS011;42117;50.360;3.508;2023-05-10T03:07:38;9.20;;;2.65;;
56201;SDS011;42117;50.360;3.508;2023-05-10T03:10:04;4.43;;;2.45;;
56201;SDS011;42117;50.360;3.508;2023-05-10T03:19:55;8.85;;;2.63;;
56201;SDS011;42117;50.360;3.508;2023-05-10T03:22:26;8.23;;;3.03;;
56201;SDS011;42117;50.360;3.508;2023-05-10T03:24:55;4.40;;;2.67;;
56201;SDS011;42117;50.360;3.508;2023-05-10T03:27:26;3.78;;;2.17;;
56201;SDS011;42117;50.360;3.508;2023-05-10T03:29:53;6.85;;;2.70;;
56201;SDS011;42117;50.360;3.508;2023-05-10T03:32:20;7.53;;;2.88;;
56201;SDS011;42117;50.360;3.508;2023-05-10T03:34:46;9.65;;;2.95;;
56201;SDS011;42117;50.360;3.508;2023-05-10T03:37:12;5.95;;;3.10;;
56201;SDS011;42117;50.360;3.508;2023-05-10T03:39:38;11.50;;;3.55;;
56201;SDS011;42117;50.360;3.508;2023-05-10T03:42:04;6.90;;;2.90;;
56201;SDS011;42117;50.360;3.508;2023-05-10T03:44:30;11.27;;;3.13;;
56201;SDS011;42117;50.360;3.508;2023-05-10T03:46:58;5.60;;;2.47;;
56201;SDS011;42117;50.360;3.508;2023-05-10T03:49:24;6.35;;;2.47;;
56201;SDS011;42117;50.360;3.508;2023-05-10T03:51:50;9.27;;;3.17;;
56201;SDS011;42117;50.360;3.508;2023-05-10T03:54:19;8.02;;;2.60;;
56201;SDS011;42117;50.360;3.508;2023-05-10T03:56:45;7.38;;;2.30;;
56201;SDS011;42117;50.360;3.508;2023-05-10T03:59:12;7.75;;;3.35;;
56201;SDS011;42117;50.360;3.508;2023-05-10T04:01:39;6.47;;;3.10;;
56201;SDS011;42117;50.360;3.508;2023-05-10T04:04:05;8.10;;;2.73;;
56201;SDS011;42117;50.360;3.508;2023-05-10T04:06:31;4.65;;;2.72;;
56201;SDS011;42117;50.360;3.508;2023-05-10T04:08:57;3.47;;;2.90;;
56201;SDS011;42117;50.360;3.508;2023-05-10T04:11:29;4.27;;;2.70;;
56201;SDS011;42117;50.360;3.508;2023-05-10T04:13:55;4.05;;;2.13;;
56201;SDS011;42117;50.360;3.508;2023-05-10T04:16:21;11.20;;;2.88;;
56201;SDS011;42117;50.360;3.508;2023-05-10T04:18:47;8.45;;;3.17;;
56201;SDS011;42117;50.360;3.508;2023-05-10T04:21:13;6.40;;;3.10;;
56201;SDS011;42117;50.360;3.508;2023-05-10T04:23:40;9.20;;;4.20;;
56201;SDS011;42117;50.360;3.508;2023-05-10T04:26:06;6.13;;;3.78;;
56201;SDS011;42117;50.360;3.508;2023-05-10T04:28:32;10.10;;;3.88;;
56201;SDS011;42117;50.360;3.508;2023-05-10T04:31:02;6.47;;;4.03;;
56201;SDS011;42117;50.360;3.508;2023-05-10T04:33:28;6.07;;;3.53;;
56201;SDS011;42117;50.360;3.508;2023-05-10T04:35:54;7.03;;;3.55;;
56201;SDS011;42117;50.360;3.508;2023-05-10T04:38:20;9.18;;;3.97;;
56201;SDS011;42117;50.360;3.508;2023-05-10T04:40:46;7.13;;;4.10;;
56201;SDS011;42117;50.360;3.508;2023-05-10T04:43:12;11.60;;;4.40;;
56201;SDS011;42117;50.360;3.508;2023-05-10T04:45:39;7.93;;;3.90;;
56201;SDS011;42117;50.360;3.508;2023-05-10T04:48:05;9.45;;;4.20;;
56201;SDS011;42117;50.360;3.508;2023-05-10T04:50:32;5.55;;;3.78;;
56201;SDS011;42117;50.360;3.508;2023-05-10T04:52:58;10.13;;;3.78;;
56201;SDS011;42117;50.360;3.508;2023-05-10T04:55:24;9.02;;;4.45;;
56201;SDS011;42117;50.360;3.508;2023-05-10T04:57:51;9.32;;;4.00;;
56201;SDS011;42117;50.360;3.508;2023-05-10T05:00:17;7.67;;;4.40;;
56201;SDS011;42117;50.360;3.508;2023-05-10T05:02:44;9.90;;;5.00;;
56201;SDS011;42117;50.360;3.508;2023-05-10T05:05:10;10.13;;;4.63;;
56201;SDS011;42117;50.360;3.508;2023-05-10T05:07:36;9.63;;;4.13;;
56201;SDS011;42117;50.360;3.508;2023-05-10T05:10:03;11.05;;;3.72;;
56201;SDS011;42117;50.360;3.508;2023-05-10T05:12:30;11.23;;;5.00;;
56201;SDS011;42117;50.360;3.508;2023-05-10T05:14:56;7.50;;;3.50;;
56201;SDS011;42117;50.360;3.508;2023-05-10T05:17:22;9.93;;;3.83;;
56201;SDS011;42117;50.360;3.508;2023-05-10T05:19:48;6.32;;;3.70;;
56201;SDS011;42117;50.360;3.508;2023-05-10T05:22:14;7.60;;;4.13;;
56201;SDS011;42117;50.360;3.508;2023-05-10T05:24:40;6.82;;;3.53;;
56201;SDS011;42117;50.360;3.508;2023-05-10T05:27:06;5.03;;;3.50;;
56201;SDS011;42117;50.360;3.508;2023-05-10T05:29:32;6.90;;;3.10;;
56201;SDS011;42117;50.360;3.508;2023-05-10T05:31:58;12.77;;;4.30;;
56201;SDS011;42117;50.360;3.508;2023-05-10T05:34:24;7.90;;;3.75;;
56201;SDS011;42117;50.360;3.508;2023-05-10T05:36:50;10.43;;;4.18;;
56201;SDS011;42117;50.360;3.508;2023-05-10T05:39:16;9.65;;;4.00;;
56201;SDS011;42117;50.360;3.508;2023-05-10T05:41:43;5.60;;;3.80;;
56201;SDS011;42117;50.360;3.508;2023-05-10T05:44:09;14.00;;;4.03;;
56201;SDS011;42117;50.360;3.508;2023-05-10T05:46:35;8.70;;;4.15;;
56201;SDS011;42117;50.360;3.508;2023-05-10T05:49:01;4.93;;;3.40;;
56201;SDS011;42117;50.360;3.508;2023-05-10T05:51:27;4.32;;;3.42;;
56201;SDS011;42117;50.360;3.508;2023-05-10T05:53:53;8.20;;;4.75;;
56201;SDS011;42117;50.360;3.508;2023-05-10T05:56:19;6.35;;;4.22;;
56201;SDS011;42117;50.360;3.508;2023-05-10T05:58:49;5.82;;;4.50;;
56201;SDS011;42117;50.360;3.508;2023-05-10T06:01:15;5.22;;;3.90;;
56201;SDS011;42117;50.360;3.508;2023-05-10T06:03:41;8.00;;;3.80;;
56201;SDS011;42117;50.360;3.508;2023-05-10T06:06:07;7.00;;;4.30;;
56201;SDS011;42117;50.360;3.508;2023-05-10T06:08:33;4.07;;;3.05;;
56201;SDS011;42117;50.360;3.508;2023-05-10T06:11:00;7.13;;;4.00;;
56201;SDS011;42117;50.360;3.508;2023-05-10T06:13:26;8.20;;;3.80;;
56201;SDS011;42117;50.360;3.508;2023-05-10T06:16:00;6.60;;;4.10;;
56201;SDS011;42117;50.360;3.508;2023-05-10T06:18:26;9.32;;;4.93;;
56201;SDS011;42117;50.360;3.508;2023-05-10T06:20:52;8.35;;;4.57;;
56201;SDS011;42117;50.360;3.508;2023-05-10T06:23:18;4.53;;;3.80;;
56201;SDS011;42117;50.360;3.508;2023-05-10T06:25:44;8.95;;;4.13;;
56201;SDS011;42117;50.360;3.508;2023-05-10T06:28:10;3.83;;;3.50;;
56201;SDS011;42117;50.360;3.508;2023-05-10T06:30:36;10.00;;;4.07;;
56201;SDS011;42117;50.360;3.508;2023-05-10T06:33:02;3.77;;;3.40;;
56201;SDS011;42117;50.360;3.508;2023-05-10T06:35:28;8.52;;;4.00;;
56201;SDS011;42117;50.360;3.508;2023-05-10T06:37:54;6.25;;;3.70;;
56201;SDS011;42117;50.360;3.508;2023-05-10T06:40:21;9.52;;;4.20;;
56201;SDS011;42117;50.360;3.508;2023-05-10T06:42:47;6.45;;;4.75;;
56201;SDS011;42117;50.360;3.508;2023-05-10T06:45:13;5.88;;;4.05;;
56201;SDS011;42117;50.360;3.508;2023-05-10T06:47:40;3.63;;;3.35;;
56201;SDS011;42117;50.360;3.508;2023-05-10T06:50:09;6.40;;;3.40;;
56201;SDS011;42117;50.360;3.508;2023-05-10T06:52:38;8.43;;;4.07;;
56201;SDS011;42117;50.360;3.508;2023-05-10T06:55:05;8.93;;;3.83;;
56201;SDS011;42117;50.360;3.508;2023-05-10T06:57:31;6.07;;;4.03;;
56201;SDS011;42117;50.360;3.508;2023-05-10T06:59:58;11.20;;;4.50;;
56201;SDS011;42117;50.360;3.508;2023-05-10T07:02:24;5.63;;;3.90;;
56201;SDS011;42117;50.360;3.508;2023-05-10T07:04:50;16.77;;;4.72;;
56201;SDS011;42117;50.360;3.508;2023-05-10T07:07:16;17.50;;;5.43;;
56201;SDS011;42117;50.360;3.508;2023-05-10T07:09:42;18.13;;;5.10;;
56201;SDS011;42117;50.360;3.508;2023-05-10T07:12:09;11.52;;;4.68;;
56201;SDS011;42117;50.360;3.508;2023-05-10T07:14:35;7.85;;;4.20;;
56201;SDS011;42117;50.360;3.508;2023-05-10T07:17:01;7.82;;;4.72;;
56201;SDS011;42117;50.360;3.508;2023-05-10T07:19:27;9.95;;;4.97;;
56201;SDS011;42117;50.360;3.508;2023-05-10T07:21:54;11.07;;;4.20;;
56201;SDS011;42117;50.360;3.508;2023-05-10T07:24:20;9.10;;;4.18;;
56201;SDS011;42117;50.360;3.508;2023-05-10T07:26:46;6.07;;;4.60;;
56201;SDS011;42117;50.360;3.508;2023-05-10T07:29:12;6.72;;;5.18;;
56201;SDS011;42117;50.360;3.508;2023-05-10T07:31:38;4.88;;;4.20;;
56201;SDS011;42117;50.360;3.508;2023-05-10T07:34:06;6.97;;;3.88;;
56201;SDS011;42117;50.360;3.508;2023-05-10T07:36:32;4.97;;;4.55;;
56201;SDS011;42117;50.360;3.508;2023-05-10T07:38:58;10.52;;;6.60;;
56201;SDS011;42117;50.360;3.508;2023-05-10T07:41:24;16.58;;;7.88;;
56201;SDS011;42117;50.360;3.508;2023-05-10T07:43:51;11.03;;;7.00;;
56201;SDS011;42117;50.360;3.508;2023-05-10T07:46:17;10.63;;;6.38;;
56201;SDS011;42117;50.360;3.508;2023-05-10T07:48:44;6.10;;;5.50;;
56201;SDS011;42117;50.360;3.508;2023-05-10T07:51:10;7.30;;;5.43;;
56201;SDS011;42117;50.360;3.508;2023-05-10T07:53:37;7.30;;;3.67;;
56201;SDS011;42117;50.360;3.508;2023-05-10T07:58:48;9.75;;;4.78;;
56201;SDS011;42117;50.360;3.508;2023-05-10T08:01:14;8.25;;;4.35;;
56201;SDS011;42117;50.360;3.508;2023-05-10T08:03:40;9.00;;;4.70;;
56201;SDS011;42117;50.360;3.508;2023-05-10T08:06:06;4.43;;;4.00;;
56201;SDS011;42117;50.360;3.508;2023-05-10T08:08:32;5.20;;;4.40;;
56201;SDS011;42117;50.360;3.508;2023-05-10T08:10:58;8.63;;;4.78;;
56201;SDS011;42117;50.360;3.508;2023-05-10T08:13:24;6.97;;;5.05;;
56201;SDS011;42117;50.360;3.508;2023-05-10T08:15:50;8.85;;;5.90;;
56201;SDS011;42117;50.360;3.508;2023-05-10T08:18:18;5.80;;;5.22;;
56201;SDS011;42117;50.360;3.508;2023-05-10T08:20:44;5.28;;;4.65;;
56201;SDS011;42117;50.360;3.508;2023-05-10T08:23:11;7.13;;;5.20;;
56201;SDS011;42117;50.360;3.508;2023-05-10T08:25:38;9.73;;;6.25;;
56201;SDS011;42117;50.360;3.508;2023-05-10T08:28:04;8.70;;;6.13;;
56201;SDS011;42117;50.360;3.508;2023-05-10T08:30:30;7.88;;;7.18;;
56201;SDS011;42117;50.360;3.508;2023-05-10T08:32:56;8.77;;;6.57;;
56201;SDS011;42117;50.360;3.508;2023-05-10T08:35:22;7.18;;;5.70;;
56201;SDS011;42117;50.360;3.508;2023-05-10T08:37:49;7.13;;;5.80;;
56201;SDS011;42117;50.360;3.508;2023-05-10T08:40:15;6.90;;;6.17;;
56201;SDS011;42117;50.360;3.508;2023-05-10T08:42:43;8.80;;;5.90;;
56201;SDS011;42117;50.360;3.508;2023-05-10T08:45:13;7.72;;;6.38;;
56201;SDS011;42117;50.360;3.508;2023-05-10T08:47:41;6.90;;;6.30;;
56201;SDS011;42117;50.360;3.508;2023-05-10T08:50:07;6.80;;;6.20;;
56201;SDS011;42117;50.360;3.508;2023-05-10T08:52:33;5.65;;;5.25;;
56201;SDS011;42117;50.360;3.508;2023-05-10T08:55:08;7.53;;;6.93;;
56201;SDS011;42117;50.360;3.508;2023-05-10T08:57:35;9.93;;;8.07;;
56201;SDS011;42117;50.360;3.508;2023-05-10T09:00:01;6.40;;;5.80;;
56201;SDS011;42117;50.360;3.508;2023-05-10T09:02:27;6.47;;;5.93;;
56201;SDS011;42117;50.360;3.508;2023-05-10T09:04:53;7.72;;;5.63;;
56201;SDS011;42117;50.360;3.508;2023-05-10T09:07:19;6.75;;;5.18;;
56201;SDS011;42117;50.360;3.508;2023-05-10T09:09:45;5.15;;;4.70;;
56201;SDS011;42117;50.360;3.508;2023-05-10T09:12:12;6.20;;;5.32;;
56201;SDS011;42117;50.360;3.508;2023-05-10T09:14:40;6.97;;;5.95;;
56201;SDS011;42117;50.360;3.508;2023-05-10T09:17:07;4.75;;;4.35;;
56201;SDS011;42117;50.360;3.508;2023-05-10T09:19:33;5.47;;;5.03;;
56201;SDS011;42117;50.360;3.508;2023-05-10T09:21:59;4.95;;;4.47;;
56201;SDS011;42117;50.360;3.508;2023-05-10T09:24:27;5.20;;;4.80;;
56201;SDS011;42117;50.360;3.508;2023-05-10T09:26:53;5.53;;;5.03;;
56201;SDS011;42117;50.360;3.508;2023-05-10T09:29:19;5.82;;;4.93;;
56201;SDS011;42117;50.360;3.508;2023-05-10T09:31:49;4.20;;;3.90;;
56201;SDS011;42117;50.360;3.508;2023-05-10T09:34:30;4.57;;;4.18;;
56201;SDS011;42117;50.360;3.508;2023-05-10T09:37:00;3.30;;;3.00;;
56201;SDS011;42117;50.360;3.508;2023-05-10T09:39:34;3.40;;;3.17;;
56201;SDS011;42117;50.360;3.508;2023-05-10T09:42:04;3.90;;;3.50;;
56201;SDS011;42117;50.360;3.508;2023-05-10T09:44:31;3.93;;;3.63;;
56201;SDS011;42117;50.360;3.508;2023-05-10T09:46:57;3.90;;;3.70;;
56201;SDS011;42117;50.360;3.508;2023-05-10T09:49:24;4.40;;;4.00;;
56201;SDS011;42117;50.360;3.508;2023-05-10T09:51:59;4.60;;;3.83;;
56201;SDS011;42117;50.360;3.508;2023-05-10T09:54:25;3.55;;;3.33;;
56201;SDS011;42117;50.360;3.508;2023-05-10T09:56:51;3.83;;;3.53;;
56201;SDS011;42117;50.360;3.508;2023-05-10T09:59:17;3.63;;;3.42;;
56201;SDS011;42117;50.360;3.508;2023-05-10T10:01:49;3.25;;;3.05;;
56201;SDS011;42117;50.360;3.508;2023-05-10T10:04:15;6.80;;;4.50;;
56201;SDS011;42117;50.360;3.508;2023-05-10T10:06:41;4.43;;;4.03;;
56201;SDS011;42117;50.360;3.508;2023-05-10T10:09:07;4.38;;;3.85;;
56201;SDS011;42117;50.360;3.508;2023-05-10T10:11:34;4.95;;;4.55;;
56201;SDS011;42117;50.360;3.508;2023-05-10T10:14:00;4.78;;;4.38;;
56201;SDS011;42117;50.360;3.508;2023-05-10T10:16:30;8.52;;;4.75;;
56201;SDS011;42117;50.360;3.508;2023-05-10T10:18:56;5.57;;;4.10;;
56201;SDS011;42117;50.360;3.508;2023-05-10T10:21:23;5.18;;;4.30;;
56201;SDS011;42117;50.360;3.508;2023-05-10T10:23:50;5.25;;;4.82;;
56201;SDS011;42117;50.360;3.508;2023-05-10T10:26:17;5.10;;;4.70;;
56201;SDS011;42117;50.360;3.508;2023-05-10T10:34:22;4.30;;;3.90;;
56201;SDS011;42117;50.360;3.508;2023-05-10T10:36:51;5.03;;;4.10;;
56201;SDS011;42117;50.360;3.508;2023-05-10T10:39:17;4.83;;;4.07;;
56201;SDS011;42117;50.360;3.508;2023-05-10T10:41:51;7.93;;;5.68;;
56201;SDS011;42117;50.360;3.508;2023-05-10T10:52:17;7.78;;;4.70;;
56201;SDS011;42117;50.360;3.508;2023-05-10T10:54:50;5.53;;;4.70;;
56201;SDS011;42117;50.360;3.508;2023-05-10T10:57:17;5.73;;;5.20;;
56201;SDS011;42117;50.360;3.508;2023-05-10T10:59:43;7.43;;;5.10;;
56201;SDS011;42117;50.360;3.508;2023-05-10T11:02:10;7.03;;;5.13;;
56201;SDS011;42117;50.360;3.508;2023-05-10T11:04:56;6.57;;;5.10;;
56201;SDS011;42117;50.360;3.508;2023-05-10T11:07:22;5.85;;;5.35;;
56201;SDS011;42117;50.360;3.508;2023-05-10T11:09:49;6.80;;;5.28;;
56201;SDS011;42117;50.360;3.508;2023-05-10T11:12:15;6.25;;;5.70;;
56201;SDS011;42117;50.360;3.508;2023-05-10T11:14:41;7.93;;;6.30;;
56201;SDS011;42117;50.360;3.508;2023-05-10T11:20:09;14.20;;;7.10;;
56201;SDS011;42117;50.360;3.508;2023-05-10T11:22:53;9.67;;;6.63;;
56201;SDS011;42117;50.360;3.508;2023-05-10T11:25:23;9.18;;;7.03;;
56201;SDS011;42117;50.360;3.508;2023-05-10T11:27:52;10.07;;;5.90;;
56201;SDS011;42117;50.360;3.508;2023-05-10T11:30:18;8.77;;;7.27;;
56201;SDS011;42117;50.360;3.508;2023-05-10T11:32:44;9.65;;;7.38;;
56201;SDS011;42117;50.360;3.508;2023-05-10T11:35:10;10.70;;;6.70;;
56201;SDS011;42117;50.360;3.508;2023-05-10T11:37:37;8.35;;;6.53;;
56201;SDS011;42117;50.360;3.508;2023-05-10T11:40:08;8.30;;;6.10;;
56201;SDS011;42117;50.360;3.508;2023-05-10T11:42:38;6.97;;;6.10;;
56201;SDS011;42117;50.360;3.508;2023-05-10T11:45:04;8.38;;;6.00;;
56201;SDS011;42117;50.360;3.508;2023-05-10T11:47:30;7.90;;;5.85;;
56201;SDS011;42117;50.360;3.508;2023-05-10T11:49:56;6.82;;;5.57;;
56201;SDS011;42117;50.360;3.508;2023-05-10T11:52:23;5.57;;;5.07;;
56201;SDS011;42117;50.360;3.508;2023-05-10T11:54:52;8.35;;;5.20;;
56201;SDS011;42117;50.360;3.508;2023-05-10T11:57:19;8.20;;;5.60;;
56201;SDS011;42117;50.360;3.508;2023-05-10T11:59:45;7.72;;;5.63;;
56201;SDS011;42117;50.360;3.508;2023-05-10T12:02:13;5.28;;;4.78;;
56201;SDS011;42117;50.360;3.508;2023-05-10T12:04:39;6.00;;;4.68;;
56201;SDS011;42117;50.360;3.508;2023-05-10T12:07:05;5.47;;;4.55;;
56201;SDS011;42117;50.360;3.508;2023-05-10T12:09:31;6.68;;;5.13;;
56201;SDS011;42117;50.360;3.508;2023-05-10T12:11:57;5.57;;;4.93;;
56201;SDS011;42117;50.360;3.508;2023-05-10T12:14:23;9.77;;;4.95;;
56201;SDS011;42117;50.360;3.508;2023-05-10T12:16:49;7.25;;;5.05;;
56201;SDS011;42117;50.360;3.508;2023-05-10T12:19:18;5.57;;;4.28;;
56201;SDS011;42117;50.360;3.508;2023-05-10T12:21:47;7.85;;;4.55;;
56201;SDS011;42117;50.360;3.508;2023-05-10T12:24:13;6.03;;;4.68;;
56201;SDS011;42117;50.360;3.508;2023-05-10T12:26:42;5.22;;;4.72;;
56201;SDS011;42117;50.360;3.508;2023-05-10T12:29:15;7.18;;;4.90;;
56201;SDS011;42117;50.360;3.508;2023-05-10T12:31:57;5.53;;;4.25;;
56201;SDS011;42117;50.360;3.508;2023-05-10T12:34:24;6.40;;;4.70;;
56201;SDS011;42117;50.360;3.508;2023-05-10T12:36:54;8.55;;;4.95;;
56201;SDS011;42117;50.360;3.508;2023-05-10T12:39:20;8.25;;;5.20;;
56201;SDS011;42117;50.360;3.508;2023-05-10T12:41:46;8.45;;;4.65;;
56201;SDS011;42117;50.360;3.508;2023-05-10T12:44:12;6.47;;;4.50;;
56201;SDS011;42117;50.360;3.508;2023-05-10T12:46:38;7.15;;;4.97;;
56201;SDS011;42117;50.360;3.508;2023-05-10T12:49:04;10.73;;;7.50;;
56201;SDS011;42117;50.360;3.508;2023-05-10T12:51:30;5.68;;;3.65;;
56201;SDS011;42117;50.360;3.508;2023-05-10T12:53:56;5.47;;;4.15;;
56201;SDS011;42117;50.360;3.508;2023-05-10T12:56:22;6.80;;;4.47;;
56201;SDS011;42117;50.360;3.508;2023-05-10T12:58:48;16.15;;;7.55;;
56201;SDS011;42117;50.360;3.508;2023-05-10T13:01:14;9.25;;;5.30;;
56201;SDS011;42117;50.360;3.508;2023-05-10T13:03:40;7.30;;;4.80;;
56201;SDS011;42117;50.360;3.508;2023-05-10T13:06:08;8.15;;;3.72;;
56201;SDS011;42117;50.360;3.508;2023-05-10T13:08:34;6.85;;;4.30;;
56201;SDS011;42117;50.360;3.508;2023-05-10T13:11:00;5.30;;;3.80;;
56201;SDS011;42117;50.360;3.508;2023-05-10T13:13:26;3.70;;;3.38;;
56201;SDS011;42117;50.360;3.508;2023-05-10T13:15:52;6.35;;;3.22;;
56201;SDS011;42117;50.360;3.508;2023-05-10T13:18:18;6.18;;;3.40;;
56201;SDS011;42117;50.360;3.508;2023-05-10T13:20:45;5.18;;;3.63;;
56201;SDS011;42117;50.360;3.508;2023-05-10T13:23:11;6.30;;;2.92;;
56201;SDS011;42117;50.360;3.508;2023-05-10T13:25:37;5.35;;;3.22;;
56201;SDS011;42117;50.360;3.508;2023-05-10T13:28:04;3.00;;;2.70;;
56201;SDS011;42117;50.360;3.508;2023-05-10T13:30:29;4.32;;;2.67;;
56201;SDS011;42117;50.360;3.508;2023-05-10T13:32:56;3.95;;;2.92;;
56201;SDS011;42117;50.360;3.508;2023-05-10T13:35:22;6.65;;;3.30;;
56201;SDS011;42117;50.360;3.508;2023-05-10T13:37:48;5.68;;;2.90;;
56201;SDS011;42117;50.360;3.508;2023-05-10T13:40:14;3.13;;;2.72;;
56201;SDS011;42117;50.360;3.508;2023-05-10T13:42:40;4.72;;;2.90;;
56201;SDS011;42117;50.360;3.508;2023-05-10T13:45:06;5.00;;;2.63;;
56201;SDS011;42117;50.360;3.508;2023-05-10T13:47:32;4.78;;;2.80;;
56201;SDS011;42117;50.360;3.508;2023-05-10T13:49:58;4.10;;;2.90;;
56201;SDS011;42117;50.360;3.508;2023-05-10T13:52:25;3.03;;;2.50;;
56201;SDS011;42117;50.360;3.508;2023-05-10T13:54:51;6.57;;;3.10;;
56201;SDS011;42117;50.360;3.508;2023-05-10T13:57:19;6.63;;;3.13;;
56201;SDS011;42117;50.360;3.508;2023-05-10T13:59:45;3.70;;;2.90;;
56201;SDS011;42117;50.360;3.508;2023-05-10T14:02:12;4.63;;;2.55;;
56201;SDS011;42117;50.360;3.508;2023-05-10T14:04:38;5.45;;;2.65;;
56201;SDS011;42117;50.360;3.508;2023-05-10T14:07:04;5.47;;;2.80;;
56201;SDS011;42117;50.360;3.508;2023-05-10T14:09:30;5.75;;;2.85;;
56201;SDS011;42117;50.360;3.508;2023-05-10T14:11:56;14.57;;;9.75;;
56201;SDS011;42117;50.360;3.508;2023-05-10T14:14:22;3.53;;;3.05;;
56201;SDS011;42117;50.360;3.508;2023-05-10T14:16:48;8.10;;;3.10;;
56201;SDS011;42117;50.360;3.508;2023-05-10T14:19:14;9.07;;;3.22;;
56201;SDS011;42117;50.360;3.508;2023-05-10T14:21:40;4.85;;;3.10;;
56201;SDS011;42117;50.360;3.508;2023-05-10T14:24:06;4.40;;;3.30;;
56201;SDS011;42117;50.360;3.508;2023-05-10T14:26:32;4.60;;;3.17;;
56201;SDS011;42117;50.360;3.508;2023-05-10T14:29:01;6.10;;;3.33;;
56201;SDS011;42117;50.360;3.508;2023-05-10T14:31:27;4.95;;;3.35;;
56201;SDS011;42117;50.360;3.508;2023-05-10T14:33:55;6.50;;;3.13;;
56201;SDS011;42117;50.360;3.508;2023-05-10T14:36:22;6.27;;;3.93;;
56201;SDS011;42117;50.360;3.508;2023-05-10T14:38:48;5.67;;;3.30;;
56201;SDS011;42117;50.360;3.508;2023-05-10T14:41:15;5.80;;;3.10;;
56201;SDS011;42117;50.360;3.508;2023-05-10T14:43:42;7.68;;;3.40;;
56201;SDS011;42117;50.360;3.508;2023-05-10T14:46:08;10.45;;;3.83;;
56201;SDS011;42117;50.360;3.508;2023-05-10T14:48:34;8.73;;;4.03;;
56201;SDS011;42117;50.360;3.508;2023-05-10T14:51:01;5.87;;;3.30;;
56201;SDS011;42117;50.360;3.508;2023-05-10T14:53:27;11.43;;;3.72;;
56201;SDS011;42117;50.360;3.508;2023-05-10T14:55:53;7.60;;;3.67;;
56201;SDS011;42117;50.360;3.508;2023-05-10T14:58:19;6.80;;;3.45;;
56201;SDS011;42117;50.360;3.508;2023-05-10T15:00:45;7.43;;;3.43;;
56201;SDS011;42117;50.360;3.508;2023-05-10T15:03:11;7.72;;;3.30;;
56201;SDS011;42117;50.360;3.508;2023-05-10T15:05:38;3.42;;;3.13;;
56201;SDS011;42117;50.360;3.508;2023-05-10T15:08:04;4.23;;;3.33;;
56201;SDS011;42117;50.360;3.508;2023-05-10T15:10:30;9.07;;;3.08;;
56201;SDS011;42117;50.360;3.508;2023-05-10T15:12:57;4.50;;;3.15;;
56201;SDS011;42117;50.360;3.508;2023-05-10T15:15:23;4.57;;;2.60;;
56201;SDS011;42117;50.360;3.508;2023-05-10T15:17:50;2.53;;;2.20;;
56201;SDS011;42117;50.360;3.508;2023-05-10T15:20:16;5.22;;;2.83;;
56201;SDS011;42117;50.360;3.508;2023-05-10T15:22:42;6.95;;;3.33;;
56201;SDS011;42117;50.360;3.508;2023-05-10T15:25:08;6.23;;;2.80;;